Portada
METAR-TAF:

METAR-TAF

Aeroports :

Rosario, Argentina

latitud: 32-55S, longitud: 060-47W, altitud: 25 m

Observació

L'informe es va fer fa 42 minuts, a les 22:00 UTC
Vent 4 kt del Nord-Oest
Temperatura 18°C
Humitat 34%
Pressió 1008 hPa
Visibilitat 10 km o més
sense núvols per sota de 1500 mi sense presència de cumulonimbus.

METAR: SAAR 172200Z 32004KT CAVOK 18/02 Q1008

Hora: 19:42 (22:42 UTC)

Pronòstic

L'informe es va fer fa 5 hores i 42 minuts, a les 17:00 UTC
Pronòstic vàlid del 17 a les 18 UTC al 18 a les 18 UTC
Vent 10 kt del Oest
Visibilitat 10 km o més
sense núvols per sota de 1500 mi sense presència de cumulonimbus.
Evolucionant progressivament
l' 18 a les 05 UTC al 18 a les 07 UTC
Vent 3 kt amb direcció variable
Evolucionant progressivament
l' 18 a les 06 UTC al 18 a les 08 UTC
Vent 10 kt del Oest/Sud-Oest

TAF: SAAR 171700Z 1718/1818 28010KT CAVOK TX23/1718Z TN10/1810Z BECMG 1805/1807 VRB03KT BECMG 1806/1808 25010KT

Observacions i pronòstics meteorològics de més de 4000 aeroports (METAR i TAF).

Les estacions disponibles són els punts grocs i vermells al mapa.

Posi el ratolí al punt desitjat per veure el nom de l'estació.

Feu clic per veure les observacions i els pronòstics meteorològics.

Per canviar el mapa: feu clic els botons verds amb una creu de color negre per apropar; al botó verd amb un guió per allunyar la imatge; o en les fletxes verdes per a mapes adjacents.


METAR-TAF: